Main page
METAR-TAF:

METAR-TAF

Airports :

Alicante–Elche Airport

Alicante, Spain

latitude: 38-17N, longitude: 000-33W, elevation: 43 m

Current weather observation

The report was made 15 minutes ago, at 01:30 UTC
Calm wind
Temperature 9°C
Humidity 93%
Pressure 1010 hPa
Visibility 10 km or more
Broken clouds at a height of 5500 ft
light rain

METAR: LEAL 200130Z 00000KT 9999 -RA BKN055 09/08 Q1010 NOSIG

Time: 02:45 (01:45 UTC)

Forecast

The report was made 2 hours and 45 minutes ago, at 23:00 UTC
Forecast valid from 20 at 00 UTC to 20 at 24 UTC
Wind 6 kt from the West/Northwest
Visibility 10 km or more
Few clouds at a height of 3400 ft
Temporary
from 20 at 00 UTC to 20 at 16 UTC
Visibility: 4000 m
Broken clouds at a height of 2000 ft
Overcast at a height of 4000 ft
rain
Temporary
from 20 at 12 UTC to 20 at 18 UTC
Wind 10 kt from the North

TAF: LEAL 192300Z 2000/2024 30006KT 9999 FEW034 TX18/2013Z TN07/2006Z TEMPO 2000/2016 4000 RA BKN020 OVC040 TEMPO 2012/2018 35010KT

Weather observations and forecasts of more than 4000 airports (METAR and TAF reports).

The available stations are represented by yellow and red dots on the map.

Hover mouse over dot to see the name of the station.

Then click to see weather observations and forecasts.

To change the map : click on the green buttons with a black cross to zoom in, on the green button with a dash to zoom out, or on the green arrows for adjacent maps.


METAR-TAF: